sensor_id;sensor_type;location;lat;lon;timestamp;pressure;altitude;pressure_sealevel;temperature;humidity
76496;BME280;65329;52.544;4.662;2022-12-11T00:01:12;101116.56;;;10.93;67.70
76496;BME280;65329;52.544;4.662;2022-12-11T00:03:40;101157.44;;;11.17;67.76
76496;BME280;65329;52.544;4.662;2022-12-11T00:06:09;101119.47;;;10.92;67.60
76496;BME280;65329;52.544;4.662;2022-12-11T00:08:37;101160.16;;;11.17;67.52
76496;BME280;65329;52.544;4.662;2022-12-11T00:11:06;101143.81;;;11.09;67.53
76496;BME280;65329;52.544;4.662;2022-12-11T00:13:33;101153.19;;;11.15;67.74
76496;BME280;65329;52.544;4.662;2022-12-11T00:15:59;101161.53;;;11.13;67.58
76496;BME280;65329;52.544;4.662;2022-12-11T00:18:26;101138.16;;;11.11;67.49
76496;BME280;65329;52.544;4.662;2022-12-11T00:20:53;101147.22;;;11.11;67.53
76496;BME280;65329;52.544;4.662;2022-12-11T00:23:19;101134.28;;;11.05;67.58
76496;BME280;65329;52.544;4.662;2022-12-11T00:25:46;101147.22;;;11.11;67.64
76496;BME280;65329;52.544;4.662;2022-12-11T00:28:15;101101.25;;;10.84;67.58
76496;BME280;65329;52.544;4.662;2022-12-11T00:30:45;101158.13;;;11.11;67.42
76496;BME280;65329;52.544;4.662;2022-12-11T00:33:13;101144.31;;;11.13;67.37
76496;BME280;65329;52.544;4.662;2022-12-11T00:35:42;101150.97;;;11.10;67.51
76496;BME280;65329;52.544;4.662;2022-12-11T00:38:18;101144.66;;;11.10;67.62
76496;BME280;65329;52.544;4.662;2022-12-11T00:40:45;101101.25;;;10.84;67.45
76496;BME280;65329;52.544;4.662;2022-12-11T00:43:12;101142.97;;;11.09;67.83
76496;BME280;65329;52.544;4.662;2022-12-11T00:45:41;101098.19;;;10.79;67.64
76496;BME280;65329;52.544;4.662;2022-12-11T00:48:09;101099.56;;;10.75;67.53
76496;BME280;65329;52.544;4.662;2022-12-11T00:50:37;101155.06;;;11.06;67.42
76496;BME280;65329;52.544;4.662;2022-12-11T00:53:04;101104.84;;;10.77;67.54
76496;BME280;65329;52.544;4.662;2022-12-11T00:55:36;101156.28;;;11.04;67.54
76496;BME280;65329;52.544;4.662;2022-12-11T00:58:03;101121.03;;;10.86;67.44
76496;BME280;65329;52.544;4.662;2022-12-11T01:00:30;101152.19;;;11.00;67.37
76496;BME280;65329;52.544;4.662;2022-12-11T01:02:57;101154.06;;;10.99;67.51
76496;BME280;65329;52.544;4.662;2022-12-11T01:05:23;101155.75;;;11.00;67.55
76496;BME280;65329;52.544;4.662;2022-12-11T01:07:50;101155.09;;;10.98;67.51
76496;BME280;65329;52.544;4.662;2022-12-11T01:10:17;101110.47;;;10.75;67.63
76496;BME280;65329;52.544;4.662;2022-12-11T01:12:53;101162.94;;;11.01;67.21
76496;BME280;65329;52.544;4.662;2022-12-11T01:15:22;101148.78;;;10.98;67.44
76496;BME280;65329;52.544;4.662;2022-12-11T01:17:50;101155.28;;;10.97;67.48
76496;BME280;65329;52.544;4.662;2022-12-11T01:20:18;101101.94;;;10.70;67.18
76496;BME280;65329;52.544;4.662;2022-12-11T01:22:45;101147.25;;;10.95;67.32
76496;BME280;65329;52.544;4.662;2022-12-11T01:25:12;101145.53;;;10.94;67.50
76496;BME280;65329;52.544;4.662;2022-12-11T01:27:38;101129.88;;;10.88;67.37
76496;BME280;65329;52.544;4.662;2022-12-11T01:30:07;101145.88;;;10.91;67.50
76496;BME280;65329;52.544;4.662;2022-12-11T01:32:34;101151.00;;;10.94;67.52
76496;BME280;65329;52.544;4.662;2022-12-11T01:35:03;101098.03;;;10.65;67.46
76496;BME280;65329;52.544;4.662;2022-12-11T01:37:30;101133.63;;;10.87;67.42
76496;BME280;65329;52.544;4.662;2022-12-11T01:39:58;101144.00;;;10.92;67.21
76496;BME280;65329;52.544;4.662;2022-12-11T01:42:25;101111.84;;;10.71;67.14
76496;BME280;65329;52.544;4.662;2022-12-11T01:47:18;101144.53;;;10.87;67.43
76496;BME280;65329;52.544;4.662;2022-12-11T01:49:44;101137.72;;;10.83;67.17
76496;BME280;65329;52.544;4.662;2022-12-11T01:52:15;101140.28;;;10.85;67.58
76496;BME280;65329;52.544;4.662;2022-12-11T01:54:45;101090.38;;;10.60;67.34
76496;BME280;65329;52.544;4.662;2022-12-11T01:57:12;101128.88;;;10.81;67.39
76496;BME280;65329;52.544;4.662;2022-12-11T01:59:44;101096.34;;;10.64;67.34
76496;BME280;65329;52.544;4.662;2022-12-11T02:02:18;101134.31;;;10.81;67.34
76496;BME280;65329;52.544;4.662;2022-12-11T02:04:46;101130.06;;;10.79;67.52
76496;BME280;65329;52.544;4.662;2022-12-11T02:07:14;101110.13;;;10.70;67.39
76496;BME280;65329;52.544;4.662;2022-12-11T02:09:43;101137.03;;;10.81;67.25
76496;BME280;65329;52.544;4.662;2022-12-11T02:15:22;101138.38;;;10.85;67.37
76496;BME280;65329;52.544;4.662;2022-12-11T02:20:34;101128.00;;;10.81;67.43
76496;BME280;65329;52.544;4.662;2022-12-11T02:23:18;101133.97;;;10.84;67.31
76496;BME280;65329;52.544;4.662;2022-12-11T02:28:41;101123.25;;;10.83;67.22
76496;BME280;65329;52.544;4.662;2022-12-11T02:36:55;101113.53;;;10.80;67.29
76496;BME280;65329;52.544;4.662;2022-12-11T02:39:22;101126.47;;;10.86;67.49
76496;BME280;65329;52.544;4.662;2022-12-11T02:41:50;101115.56;;;10.78;67.42
76496;BME280;65329;52.544;4.662;2022-12-11T02:44:23;101119.66;;;10.82;67.38
76496;BME280;65329;52.544;4.662;2022-12-11T02:46:52;101072.00;;;10.54;67.41
76496;BME280;65329;52.544;4.662;2022-12-11T02:49:21;101088.34;;;10.54;67.31
76496;BME280;65329;52.544;4.662;2022-12-11T02:51:49;101111.50;;;10.74;67.33
76496;BME280;65329;52.544;4.662;2022-12-11T02:54:20;101080.88;;;10.56;67.39
76496;BME280;65329;52.544;4.662;2022-12-11T02:56:57;101113.19;;;10.75;67.36
76496;BME280;65329;52.544;4.662;2022-12-11T02:59:33;101068.94;;;10.49;67.43
76496;BME280;65329;52.544;4.662;2022-12-11T03:02:02;101092.78;;;10.63;67.41
76496;BME280;65329;52.544;4.662;2022-12-11T03:04:29;101067.25;;;10.48;67.29
76496;BME280;65329;52.544;4.662;2022-12-11T03:07:00;101112.69;;;10.72;67.53
76496;BME280;65329;52.544;4.662;2022-12-11T03:09:28;101115.22;;;10.73;67.51
76496;BME280;65329;52.544;4.662;2022-12-11T03:11:57;101073.03;;;10.53;67.38
76496;BME280;65329;52.544;4.662;2022-12-11T03:14:23;101049.53;;;10.44;67.61
76496;BME280;65329;52.544;4.662;2022-12-11T03:17:08;101059.75;;;10.50;67.42
76496;BME280;65329;52.544;4.662;2022-12-11T03:20:00;101048.69;;;10.44;67.16
76496;BME280;65329;52.544;4.662;2022-12-11T03:22:36;101087.50;;;10.70;67.43
76496;BME280;65329;52.544;4.662;2022-12-11T03:25:18;101078.09;;;10.64;67.27
76496;BME280;65329;52.544;4.662;2022-12-11T03:30:27;101088.66;;;10.67;67.58
76496;BME280;65329;52.544;4.662;2022-12-11T03:33:00;101042.72;;;10.40;67.44
76496;BME280;65329;52.544;4.662;2022-12-11T03:35:44;101092.25;;;10.68;67.70
76496;BME280;65329;52.544;4.662;2022-12-11T03:38:20;101032.50;;;10.34;67.58
76496;BME280;65329;52.544;4.662;2022-12-11T03:40:51;101070.13;;;10.55;67.35
76496;BME280;65329;52.544;4.662;2022-12-11T03:43:20;101088.84;;;10.66;67.64
76496;BME280;65329;52.544;4.662;2022-12-11T03:45:48;101077.63;;;10.61;67.42
76496;BME280;65329;52.544;4.662;2022-12-11T03:48:17;101080.19;;;10.62;67.41
76496;BME280;65329;52.544;4.662;2022-12-11T03:50:46;101081.88;;;10.63;67.20
76496;BME280;65329;52.544;4.662;2022-12-11T03:53:13;101085.97;;;10.59;67.64
76496;BME280;65329;52.544;4.662;2022-12-11T03:55:41;101068.59;;;10.52;67.43
76496;BME280;65329;52.544;4.662;2022-12-11T03:58:08;101038.47;;;10.38;67.47
76496;BME280;65329;52.544;4.662;2022-12-11T04:00:35;101075.41;;;10.56;67.35
76496;BME280;65329;52.544;4.662;2022-12-11T04:03:02;101070.97;;;10.55;67.46
76496;BME280;65329;52.544;4.662;2022-12-11T04:05:47;101073.69;;;10.55;67.70
76496;BME280;65329;52.544;4.662;2022-12-11T04:08:16;101075.75;;;10.53;67.32
76496;BME280;65329;52.544;4.662;2022-12-11T04:10:43;101070.31;;;10.53;67.57
76496;BME280;65329;52.544;4.662;2022-12-11T04:13:10;101076.75;;;10.52;67.34
76496;BME280;65329;52.544;4.662;2022-12-11T04:15:38;101086.66;;;10.53;67.94
76496;BME280;65329;52.544;4.662;2022-12-11T04:18:06;101042.41;;;10.27;67.61
76496;BME280;65329;52.544;4.662;2022-12-11T04:20:55;101069.28;;;10.46;67.50
76496;BME280;65329;52.544;4.662;2022-12-11T04:23:40;101082.38;;;10.51;67.59
76496;BME280;65329;52.544;4.662;2022-12-11T04:26:26;101090.56;;;10.51;67.69
76496;BME280;65329;52.544;4.662;2022-12-11T04:28:52;101042.72;;;10.24;67.53
76496;BME280;65329;52.544;4.662;2022-12-11T04:31:21;101082.38;;;10.51;67.87
76496;BME280;65329;52.544;4.662;2022-12-11T04:33:48;101034.25;;;10.19;67.78
76496;BME280;65329;52.544;4.662;2022-12-11T04:36:16;101076.78;;;10.44;67.75
76496;BME280;65329;52.544;4.662;2022-12-11T04:38:43;101081.56;;;10.50;67.43
76496;BME280;65329;52.544;4.662;2022-12-11T04:41:12;101036.47;;;10.24;67.70
76496;BME280;65329;52.544;4.662;2022-12-11T04:43:40;101036.47;;;10.24;67.78
76496;BME280;65329;52.544;4.662;2022-12-11T04:46:15;101033.22;;;10.20;67.45
76496;BME280;65329;52.544;4.662;2022-12-11T04:48:43;101027.06;;;10.18;67.66
76496;BME280;65329;52.544;4.662;2022-12-11T04:51:10;101079.34;;;10.46;67.52
76496;BME280;65329;52.544;4.662;2022-12-11T04:53:37;101025.03;;;10.20;67.63
76496;BME280;65329;52.544;4.662;2022-12-11T04:56:08;101065.72;;;10.46;67.26
76496;BME280;65329;52.544;4.662;2022-12-11T04:58:36;101064.16;;;10.43;67.34
76496;BME280;65329;52.544;4.662;2022-12-11T05:01:23;101060.09;;;10.47;67.56
76496;BME280;65329;52.544;4.662;2022-12-11T05:03:50;101057.53;;;10.46;67.81
76496;BME280;65329;52.544;4.662;2022-12-11T05:06:16;101055.66;;;10.46;67.39
76496;BME280;65329;52.544;4.662;2022-12-11T05:08:44;101039.00;;;10.41;67.60
76496;BME280;65329;52.544;4.662;2022-12-11T05:11:13;101007.00;;;10.19;67.48
76496;BME280;65329;52.544;4.662;2022-12-11T05:13:40;101007.53;;;10.15;67.68
76496;BME280;65329;52.544;4.662;2022-12-11T05:16:09;101038.63;;;10.36;67.57
76496;BME280;65329;52.544;4.662;2022-12-11T05:18:36;101033.03;;;10.38;67.67
76496;BME280;65329;52.544;4.662;2022-12-11T05:21:06;101051.41;;;10.44;67.56
76496;BME280;65329;52.544;4.662;2022-12-11T05:23:33;101001.91;;;10.16;67.65
76496;BME280;65329;52.544;4.662;2022-12-11T05:26:06;101050.19;;;10.46;67.58
76496;BME280;65329;52.544;4.662;2022-12-11T05:28:35;101052.94;;;10.46;67.37
76496;BME280;65329;52.544;4.662;2022-12-11T05:31:07;101055.47;;;10.48;67.58
76496;BME280;65329;52.544;4.662;2022-12-11T05:33:36;101061.44;;;10.51;67.65
76496;BME280;65329;52.544;4.662;2022-12-11T05:36:03;101067.75;;;10.52;67.77
76496;BME280;65329;52.544;4.662;2022-12-11T05:38:30;101014.50;;;10.25;67.52
76496;BME280;65329;52.544;4.662;2022-12-11T05:40:58;101029.47;;;10.29;67.76
76496;BME280;65329;52.544;4.662;2022-12-11T05:43:27;101062.31;;;10.52;67.74
76496;BME280;65329;52.544;4.662;2022-12-11T05:45:54;101065.03;;;10.52;67.92
76496;BME280;65329;52.544;4.662;2022-12-11T05:48:21;101060.25;;;10.54;67.80
76496;BME280;65329;52.544;4.662;2022-12-11T05:50:58;101070.97;;;10.55;67.31
76496;BME280;65329;52.544;4.662;2022-12-11T05:53:25;101005.94;;;10.28;67.78
76496;BME280;65329;52.544;4.662;2022-12-11T05:55:53;101049.84;;;10.57;67.68
76496;BME280;65329;52.544;4.662;2022-12-11T05:58:20;101012.44;;;10.35;67.67
76496;BME280;65329;52.544;4.662;2022-12-11T06:00:47;101038.25;;;10.55;67.41
76496;BME280;65329;52.544;4.662;2022-12-11T06:03:13;101000.66;;;10.35;67.58
76496;BME280;65329;52.544;4.662;2022-12-11T06:05:40;101052.22;;;10.60;67.82
76496;BME280;65329;52.544;4.662;2022-12-11T06:08:07;101033.34;;;10.51;67.42
76496;BME280;65329;52.544;4.662;2022-12-11T06:10:34;101049.50;;;10.60;67.65
76496;BME280;65329;52.544;4.662;2022-12-11T06:13:01;101049.50;;;10.60;67.80
76496;BME280;65329;52.544;4.662;2022-12-11T06:15:28;101000.84;;;10.33;67.67
76496;BME280;65329;52.544;4.662;2022-12-11T06:17:55;101055.81;;;10.61;67.96
76496;BME280;65329;52.544;4.662;2022-12-11T06:20:21;100993.72;;;10.32;67.67
76496;BME280;65329;52.544;4.662;2022-12-11T06:22:48;101042.84;;;10.63;67.81
76496;BME280;65329;52.544;4.662;2022-12-11T06:25:15;101051.19;;;10.61;67.90
76496;BME280;65329;52.544;4.662;2022-12-11T06:27:41;101047.81;;;10.59;67.67
76496;BME280;65329;52.544;4.662;2022-12-11T06:30:08;101043.19;;;10.60;68.17
76496;BME280;65329;52.544;4.662;2022-12-11T06:32:35;101015.13;;;10.43;67.78
76496;BME280;65329;52.544;4.662;2022-12-11T06:35:02;100996.09;;;10.35;67.84
76496;BME280;65329;52.544;4.662;2022-12-11T06:37:29;101006.97;;;10.35;67.66
76496;BME280;65329;52.544;4.662;2022-12-11T06:39:55;101008.50;;;10.38;67.76
76496;BME280;65329;52.544;4.662;2022-12-11T06:42:22;101055.13;;;10.67;68.01
76496;BME280;65329;52.544;4.662;2022-12-11T06:44:49;101050.03;;;10.64;67.95
76496;BME280;65329;52.544;4.662;2022-12-11T06:47:15;101065.16;;;10.66;68.02
76496;BME280;65329;52.544;4.662;2022-12-11T06:49:42;101055.28;;;10.65;67.88
76496;BME280;65329;52.544;4.662;2022-12-11T06:52:08;101054.25;;;10.66;67.88
76496;BME280;65329;52.544;4.662;2022-12-11T06:54:43;101011.91;;;10.40;67.73
76496;BME280;65329;52.544;4.662;2022-12-11T06:57:10;101059.03;;;10.64;67.70
76496;BME280;65329;52.544;4.662;2022-12-11T06:59:36;101067.72;;;10.68;67.70
76496;BME280;65329;52.544;4.662;2022-12-11T07:02:03;101071.13;;;10.70;67.76
76496;BME280;65329;52.544;4.662;2022-12-11T07:04:30;101036.91;;;10.43;67.72
76496;BME280;65329;52.544;4.662;2022-12-11T07:06:57;101068.06;;;10.65;67.93
76496;BME280;65329;52.544;4.662;2022-12-11T07:09:24;101036.25;;;10.41;68.00
76496;BME280;65329;52.544;4.662;2022-12-11T07:11:51;101079.97;;;10.72;67.75
76496;BME280;65329;52.544;4.662;2022-12-11T07:14:19;101057.34;;;10.63;67.63
76496;BME280;65329;52.544;4.662;2022-12-11T07:16:45;101077.41;;;10.70;67.91
76496;BME280;65329;52.544;4.662;2022-12-11T07:19:12;101057.50;;;10.62;67.83
76496;BME280;65329;52.544;4.662;2022-12-11T07:21:39;101076.25;;;10.73;67.78
76496;BME280;65329;52.544;4.662;2022-12-11T07:24:06;101078.78;;;10.74;67.92
76496;BME280;65329;52.544;4.662;2022-12-11T07:26:33;101032.50;;;10.50;67.64
76496;BME280;65329;52.544;4.662;2022-12-11T07:29:00;101078.63;;;10.76;67.79
76496;BME280;65329;52.544;4.662;2022-12-11T07:31:27;101083.56;;;10.72;67.69
76496;BME280;65329;52.544;4.662;2022-12-11T07:33:56;101043.22;;;10.52;67.68
76496;BME280;65329;52.544;4.662;2022-12-11T07:36:24;101031.81;;;10.48;67.72
76496;BME280;65329;52.544;4.662;2022-12-11T07:38:52;101087.44;;;10.78;67.73
76496;BME280;65329;52.544;4.662;2022-12-11T07:41:19;101035.22;;;10.50;67.91
76496;BME280;65329;52.544;4.662;2022-12-11T07:43:51;101068.53;;;10.76;67.87
76496;BME280;65329;52.544;4.662;2022-12-11T07:46:24;101023.28;;;10.51;67.88
76496;BME280;65329;52.544;4.662;2022-12-11T07:48:51;101067.53;;;10.77;67.60
76496;BME280;65329;52.544;4.662;2022-12-11T07:51:24;101064.47;;;10.72;67.80
76496;BME280;65329;52.544;4.662;2022-12-11T07:53:55;101028.41;;;10.54;67.98
76496;BME280;65329;52.544;4.662;2022-12-11T07:56:22;101077.06;;;10.81;67.77
76496;BME280;65329;52.544;4.662;2022-12-11T07:58:49;101021.09;;;10.55;67.65
76496;BME280;65329;52.544;4.662;2022-12-11T08:01:21;101076.38;;;10.79;67.74
76496;BME280;65329;52.544;4.662;2022-12-11T08:03:49;101031.81;;;10.56;67.41
76496;BME280;65329;52.544;4.662;2022-12-11T08:06:16;101078.75;;;10.82;67.65
76496;BME280;65329;52.544;4.662;2022-12-11T08:08:44;101094.09;;;10.83;67.57
76496;BME280;65329;52.544;4.662;2022-12-11T08:11:13;101082.69;;;10.80;67.69
76496;BME280;65329;52.544;4.662;2022-12-11T08:13:41;101094.75;;;10.85;67.60
76496;BME280;65329;52.544;4.662;2022-12-11T08:16:11;101082.00;;;10.86;67.71
76496;BME280;65329;52.544;4.662;2022-12-11T08:18:39;101078.59;;;10.84;67.70
76496;BME280;65329;52.544;4.662;2022-12-11T08:21:09;101078.75;;;10.82;67.84
76496;BME280;65329;52.544;4.662;2022-12-11T08:23:36;101099.22;;;10.86;67.95
76496;BME280;65329;52.544;4.662;2022-12-11T08:26:05;101092.03;;;10.85;67.52
76496;BME280;65329;52.544;4.662;2022-12-11T08:28:32;101111.81;;;10.87;67.43
76496;BME280;65329;52.544;4.662;2022-12-11T08:31:03;101101.25;;;10.84;67.55
76496;BME280;65329;52.544;4.662;2022-12-11T08:33:30;101112.69;;;10.88;67.70
76496;BME280;65329;52.544;4.662;2022-12-11T08:35:57;101101.44;;;10.83;67.72
76496;BME280;65329;52.544;4.662;2022-12-11T08:38:23;101119.13;;;10.87;67.80
76496;BME280;65329;52.544;4.662;2022-12-11T08:40:51;101121.69;;;10.88;67.52
76496;BME280;65329;52.544;4.662;2022-12-11T08:43:18;101117.09;;;10.89;67.44
76496;BME280;65329;52.544;4.662;2022-12-11T08:45:45;101069.94;;;10.64;67.62
76496;BME280;65329;52.544;4.662;2022-12-11T08:48:12;101101.25;;;10.84;67.39
76496;BME280;65329;52.544;4.662;2022-12-11T08:50:39;101101.94;;;10.86;67.45
76496;BME280;65329;52.544;4.662;2022-12-11T08:53:06;101101.25;;;10.84;67.47
76496;BME280;65329;52.544;4.662;2022-12-11T08:55:33;101117.59;;;10.92;67.76
76496;BME280;65329;52.544;4.662;2022-12-11T08:58:00;101076.91;;;10.75;67.51
76496;BME280;65329;52.544;4.662;2022-12-11T09:00:26;101103.28;;;10.90;67.39
76496;BME280;65329;52.544;4.662;2022-12-11T09:02:53;101058.03;;;10.65;67.49
76496;BME280;65329;52.544;4.662;2022-12-11T09:05:20;101099.34;;;10.93;67.43
76496;BME280;65329;52.544;4.662;2022-12-11T09:07:46;101062.78;;;10.71;67.64
76496;BME280;65329;52.544;4.662;2022-12-11T09:10:13;101108.03;;;10.96;67.56
76496;BME280;65329;52.544;4.662;2022-12-11T09:12:40;101099.00;;;10.96;67.39
76496;BME280;65329;52.544;4.662;2022-12-11T09:15:07;101093.72;;;10.94;67.45
76496;BME280;65329;52.544;4.662;2022-12-11T09:17:35;101087.09;;;10.89;67.34
76496;BME280;65329;52.544;4.662;2022-12-11T09:20:02;101098.16;;;10.95;67.47
76496;BME280;65329;52.544;4.662;2022-12-11T09:22:31;101100.56;;;10.98;67.19
76496;BME280;65329;52.544;4.662;2022-12-11T09:24:58;101104.97;;;10.99;67.40
76496;BME280;65329;52.544;4.662;2022-12-11T09:27:25;101058.31;;;10.78;67.29
76496;BME280;65329;52.544;4.662;2022-12-11T09:29:51;101081.47;;;10.98;67.26
76496;BME280;65329;52.544;4.662;2022-12-11T09:32:19;101078.91;;;10.97;67.25
76496;BME280;65329;52.544;4.662;2022-12-11T09:34:49;101090.28;;;11.00;67.11
76496;BME280;65329;52.544;4.662;2022-12-11T09:37:16;101067.16;;;10.88;67.00
76496;BME280;65329;52.544;4.662;2022-12-11T09:39:43;101085.53;;;11.02;67.29
76496;BME280;65329;52.544;4.662;2022-12-11T09:42:20;101081.13;;;11.01;67.00
76496;BME280;65329;52.544;4.662;2022-12-11T09:44:50;101086.41;;;11.03;67.27
76496;BME280;65329;52.544;4.662;2022-12-11T09:47:39;101085.53;;;11.02;67.50
76496;BME280;65329;52.544;4.662;2022-12-11T09:55:25;101090.63;;;11.05;67.10
76496;BME280;65329;52.544;4.662;2022-12-11T09:58:07;101084.16;;;11.06;67.00
76496;BME280;65329;52.544;4.662;2022-12-11T10:00:50;101083.78;;;11.09;67.10
76496;BME280;65329;52.544;4.662;2022-12-11T10:03:59;101080.06;;;11.10;66.95
76496;BME280;65329;52.544;4.662;2022-12-11T10:07:15;101083.44;;;11.12;67.42
76496;BME280;65329;52.544;4.662;2022-12-11T10:09:38;101079.72;;;11.13;67.26
76496;BME280;65329;52.544;4.662;2022-12-11T10:12:35;101083.44;;;11.12;67.52
76496;BME280;65329;52.544;4.662;2022-12-11T10:15:23;101084.81;;;11.16;67.39
76496;BME280;65329;52.544;4.662;2022-12-11T10:17:54;101091.97;;;11.17;67.59
76496;BME280;65329;52.544;4.662;2022-12-11T10:20:34;101077.97;;;11.12;67.63
76496;BME280;65329;52.544;4.662;2022-12-11T10:23:15;101092.66;;;11.19;67.64
76496;BME280;65329;52.544;4.662;2022-12-11T10:26:08;101088.88;;;11.20;67.62
76496;BME280;65329;52.544;4.662;2022-12-11T10:28:36;101093.31;;;11.21;67.56
76496;BME280;65329;52.544;4.662;2022-12-11T10:33:57;101089.56;;;11.22;67.80
76496;BME280;65329;52.544;4.662;2022-12-11T10:36:34;101087.50;;;11.24;67.86
76496;BME280;65329;52.544;4.662;2022-12-11T10:39:08;101074.88;;;11.23;67.37
76496;BME280;65329;52.544;4.662;2022-12-11T10:41:38;101078.28;;;11.25;67.70
76496;BME280;65329;52.544;4.662;2022-12-11T10:46:44;101068.41;;;11.24;67.72
76496;BME280;65329;52.544;4.662;2022-12-11T10:51:49;101060.22;;;11.24;67.73
76496;BME280;65329;52.544;4.662;2022-12-11T10:54:32;101061.19;;;11.31;68.06
76496;BME280;65329;52.544;4.662;2022-12-11T10:57:01;101027.56;;;11.08;67.63
76496;BME280;65329;52.544;4.662;2022-12-11T10:59:36;101074.66;;;11.33;67.96
76496;BME280;65329;52.544;4.662;2022-12-11T11:02:05;101063.91;;;11.31;68.01
76496;BME280;65329;52.544;4.662;2022-12-11T11:04:36;101048.94;;;11.27;68.08
76496;BME280;65329;52.544;4.662;2022-12-11T11:07:11;101024.47;;;11.11;68.03
76496;BME280;65329;52.544;4.662;2022-12-11T11:09:39;101059.16;;;11.33;67.78
76496;BME280;65329;52.544;4.662;2022-12-11T11:12:24;101071.38;;;11.37;67.88
76496;BME280;65329;52.544;4.662;2022-12-11T11:15:04;101064.06;;;11.38;67.94
76496;BME280;65329;52.544;4.662;2022-12-11T11:17:32;101056.06;;;11.36;68.02
76496;BME280;65329;52.544;4.662;2022-12-11T11:20:23;101056.75;;;11.38;67.83
76496;BME280;65329;52.544;4.662;2022-12-11T11:22:54;101004.16;;;11.14;67.98
76496;BME280;65329;52.544;4.662;2022-12-11T11:25:26;101050.25;;;11.39;67.83
76496;BME280;65329;52.544;4.662;2022-12-11T11:27:54;101048.84;;;11.43;67.92
76496;BME280;65329;52.544;4.662;2022-12-11T11:30:26;101007.22;;;11.19;67.28
76496;BME280;65329;52.544;4.662;2022-12-11T11:32:56;101047.16;;;11.42;67.66
76496;BME280;65329;52.544;4.662;2022-12-11T11:35:28;101042.38;;;11.44;68.16
76496;BME280;65329;52.544;4.662;2022-12-11T11:38:17;101050.22;;;11.47;68.00
76496;BME280;65329;52.544;4.662;2022-12-11T11:41:12;101041.00;;;11.48;68.14
76496;BME280;65329;52.544;4.662;2022-12-11T11:43:47;101036.94;;;11.44;67.80
76496;BME280;65329;52.544;4.662;2022-12-11T11:46:22;101044.41;;;11.50;67.85
76496;BME280;65329;52.544;4.662;2022-12-11T11:51:30;101042.03;;;11.47;67.81
76496;BME280;65329;52.544;4.662;2022-12-11T11:54:02;101037.66;;;11.69;67.57
76496;BME280;65329;52.544;4.662;2022-12-11T11:56:36;101034.09;;;11.60;67.75
76496;BME280;65329;52.544;4.662;2022-12-11T11:59:13;101044.31;;;11.58;68.01
76496;BME280;65329;52.544;4.662;2022-12-11T12:01:42;100992.97;;;11.31;68.51
76496;BME280;65329;52.544;4.662;2022-12-11T12:04:10;100993.66;;;11.33;68.43
76496;BME280;65329;52.544;4.662;2022-12-11T12:14:41;101020.13;;;11.55;68.64
76496;BME280;65329;52.544;4.662;2022-12-11T12:28:09;101029.16;;;11.64;68.58
76496;BME280;65329;52.544;4.662;2022-12-11T12:31:11;101021.81;;;11.65;68.54
76496;BME280;65329;52.544;4.662;2022-12-11T12:42:14;101024.19;;;11.68;67.98
76496;BME280;65329;52.544;4.662;2022-12-11T12:45:09;101020.78;;;11.66;68.54
76496;BME280;65329;52.544;4.662;2022-12-11T12:47:41;100994.03;;;11.53;68.77
76496;BME280;65329;52.544;4.662;2022-12-11T12:50:18;100971.59;;;11.43;68.83
76496;BME280;65329;52.544;4.662;2022-12-11T12:52:46;100985.34;;;11.49;68.54
76496;BME280;65329;52.544;4.662;2022-12-11T12:55:38;101026.53;;;11.71;68.64
76496;BME280;65329;52.544;4.662;2022-12-11T12:58:06;100950.00;;;11.33;68.23
76496;BME280;65329;52.544;4.662;2022-12-11T13:03:14;101023.63;;;11.72;68.63
76496;BME280;65329;52.544;4.662;2022-12-11T13:05:45;101007.78;;;11.68;68.19
76496;BME280;65329;52.544;4.662;2022-12-11T13:08:25;101020.06;;;11.72;68.37
76496;BME280;65329;52.544;4.662;2022-12-11T13:11:00;100968.69;;;11.44;68.20
76496;BME280;65329;52.544;4.662;2022-12-11T13:13:35;101019.22;;;11.71;68.48
76496;BME280;65329;52.544;4.662;2022-12-11T13:16:23;100978.22;;;11.48;68.57
76496;BME280;65329;52.544;4.662;2022-12-11T13:18:52;100999.78;;;11.66;68.43
76496;BME280;65329;52.544;4.662;2022-12-11T13:21:37;101015.94;;;11.76;68.54
76496;BME280;65329;52.544;4.662;2022-12-11T13:24:30;101018.50;;;11.77;68.47
76496;BME280;65329;52.544;4.662;2022-12-11T13:27:09;101010.84;;;11.73;68.36
76496;BME280;65329;52.544;4.662;2022-12-11T13:29:38;101015.56;;;11.79;68.35
76496;BME280;65329;52.544;4.662;2022-12-11T13:34:40;100975.44;;;11.56;68.06
76496;BME280;65329;52.544;4.662;2022-12-11T13:39:57;101008.44;;;11.78;68.52
76496;BME280;65329;52.544;4.662;2022-12-11T13:42:30;100999.72;;;11.74;68.31
76496;BME280;65329;52.544;4.662;2022-12-11T13:44:59;101000.06;;;11.79;68.04
76496;BME280;65329;52.544;4.662;2022-12-11T13:47:26;101001.91;;;11.79;68.10
76496;BME280;65329;52.544;4.662;2022-12-11T13:50:33;100997.13;;;11.81;68.03
76496;BME280;65329;52.544;4.662;2022-12-11T13:53:00;101003.59;;;11.80;68.23
76496;BME280;65329;52.544;4.662;2022-12-11T13:55:30;101009.75;;;11.82;68.21
76496;BME280;65329;52.544;4.662;2022-12-11T13:57:57;101008.06;;;11.81;68.31
76496;BME280;65329;52.544;4.662;2022-12-11T14:00:29;101001.75;;;11.80;68.75
76496;BME280;65329;52.544;4.662;2022-12-11T14:03:01;100972.22;;;11.53;68.63
76496;BME280;65329;52.544;4.662;2022-12-11T14:05:29;101027.19;;;11.81;68.56
76496;BME280;65329;52.544;4.662;2022-12-11T14:07:58;101002.34;;;11.68;68.63
76496;BME280;65329;52.544;4.662;2022-12-11T14:10:30;101015.75;;;11.77;68.44
76496;BME280;65329;52.544;4.662;2022-12-11T14:13:03;101010.66;;;11.74;68.71
76496;BME280;65329;52.544;4.662;2022-12-11T14:15:32;101017.63;;;11.77;68.53
76496;BME280;65329;52.544;4.662;2022-12-11T14:17:59;100993.16;;;11.60;68.49
76496;BME280;65329;52.544;4.662;2022-12-11T14:20:29;101027.34;;;11.79;68.88